Snoqualmie River: Carnation station

back to: Snoqualmie river
Carnation station Summary - (NOAA Hydrograph: CRNW1)
flood stage: 54.0 ft
Latest reading:
Tue09/29 01:15 am 46.37 ft 1690 cfs (-80/hr)
Past 24hr max:
Mon09/28 01:15 am 47.04 ft 2810 cfs
Forecasted crests: (published Mon 09/28/20 02:57 pm)
Mon10/05 11:00 am 45.76 ft 920 cfs

Carnation station Details

Latest Readings

Last 100 Readings:
Tue09/29 01:15 am 46.37 ft 1690 cfs
Tue09/29 01:00 am 46.38 ft 1710 cfs
Tue09/29 12:45 am 46.38 ft 1710 cfs
Tue09/29 12:30 am 46.38 ft 1710 cfs
Tue09/29 12:15 am 46.4 ft 1720 cfs
Tue09/29 12:00 am 46.4 ft 1720 cfs
Mon09/28 11:45 pm 46.41 ft 1740 cfs
Mon09/28 11:30 pm 46.41 ft 1750 cfs
Mon09/28 11:15 pm 46.41 ft 1750 cfs
Mon09/28 11:00 pm 46.42 ft 1750 cfs
Mon09/28 10:45 pm 46.43 ft 1770 cfs
Mon09/28 10:30 pm 46.42 ft 1780 cfs
Mon09/28 10:15 pm 46.43 ft 1800 cfs
Mon09/28 10:00 pm 46.45 ft 1800 cfs
Mon09/28 09:45 pm 46.43 ft 1800 cfs
Mon09/28 09:30 pm 46.45 ft 1800 cfs
Mon09/28 09:15 pm 46.45 ft 1810 cfs
Mon09/28 09:00 pm 46.45 ft 1830 cfs
Mon09/28 08:45 pm 46.45 ft 1830 cfs
Mon09/28 08:30 pm 46.46 ft 1840 cfs
Mon09/28 08:15 pm 46.47 ft 1840 cfs
Mon09/28 08:00 pm 46.46 ft 1860 cfs
Mon09/28 07:45 pm 46.47 ft 1860 cfs
Mon09/28 07:30 pm 46.49 ft 1860 cfs
Mon09/28 07:15 pm 46.49 ft 1890 cfs
Mon09/28 07:00 pm 46.47 ft 1870 cfs
Mon09/28 06:45 pm 46.48 ft 1890 cfs
Mon09/28 06:30 pm 46.5 ft 1900 cfs
Mon09/28 06:15 pm 46.5 ft 1920 cfs
Mon09/28 06:00 pm 46.51 ft 1920 cfs
Mon09/28 05:45 pm 46.51 ft 1920 cfs
Mon09/28 05:30 pm 46.52 ft 1950 cfs
Mon09/28 05:15 pm 46.53 ft 1960 cfs
Mon09/28 05:00 pm 46.52 ft 1950 cfs
Mon09/28 04:45 pm 46.54 ft 1960 cfs
Mon09/28 04:30 pm 46.53 ft 1980 cfs
Mon09/28 04:15 pm 46.55 ft 1980 cfs
Mon09/28 04:00 pm 46.55 ft 2000 cfs
Mon09/28 03:45 pm 46.57 ft 2010 cfs
Mon09/28 03:30 pm 46.57 ft 2010 cfs
Mon09/28 03:15 pm 46.56 ft 2010 cfs
Mon09/28 03:00 pm 46.58 ft 2030 cfs
Mon09/28 02:45 pm 46.58 ft 2030 cfs
Mon09/28 02:30 pm 46.58 ft 2040 cfs
Mon09/28 02:15 pm 46.6 ft 2060 cfs
Mon09/28 02:00 pm 46.6 ft 2060 cfs
Mon09/28 01:45 pm 46.61 ft 2070 cfs
Mon09/28 01:30 pm 46.62 ft 2090 cfs
Mon09/28 01:15 pm 46.62 ft 2090 cfs
Mon09/28 01:00 pm 46.63 ft 2110 cfs
Mon09/28 12:45 pm 46.62 ft 2120 cfs
Mon09/28 12:30 pm 46.65 ft 2120 cfs
Mon09/28 12:15 pm 46.65 ft 2140 cfs
Mon09/28 12:00 pm 46.67 ft 2140 cfs
Mon09/28 11:45 am 46.65 ft 2160 cfs
Mon09/28 11:30 am 46.68 ft 2170 cfs
Mon09/28 11:15 am 46.69 ft 2170 cfs
Mon09/28 11:00 am 46.69 ft 2190 cfs
Mon09/28 10:45 am 46.7 ft 2200 cfs
Mon09/28 10:30 am 46.7 ft 2220 cfs
Mon09/28 10:15 am 46.71 ft 2220 cfs
Mon09/28 10:00 am 46.74 ft 2240 cfs
Mon09/28 09:45 am 46.73 ft 2250 cfs
Mon09/28 09:30 am 46.75 ft 2270 cfs
Mon09/28 09:15 am 46.75 ft 2290 cfs
Mon09/28 09:00 am 46.75 ft 2320 cfs
Mon09/28 08:45 am 46.77 ft 2300 cfs
Mon09/28 08:30 am 46.78 ft 2340 cfs
Mon09/28 08:15 am 46.79 ft 2350 cfs
Mon09/28 08:00 am 46.79 ft 2350 cfs
Mon09/28 07:45 am 46.8 ft 2350 cfs
Mon09/28 07:30 am 46.8 ft 2370 cfs
Mon09/28 07:15 am 46.82 ft 2390 cfs
Mon09/28 07:00 am 46.82 ft 2400 cfs
Mon09/28 06:45 am 46.83 ft 2420 cfs
Mon09/28 06:30 am 46.84 ft 2420 cfs
Mon09/28 06:15 am 46.82 ft 2450 cfs
Mon09/28 06:00 am 46.87 ft 2470 cfs
Mon09/28 05:45 am 46.86 ft 2470 cfs
Mon09/28 05:30 am 46.87 ft 2490 cfs
Mon09/28 05:15 am 46.88 ft 2510 cfs
Mon09/28 05:00 am 46.89 ft 2520 cfs
Mon09/28 04:45 am 46.9 ft 2540 cfs
Mon09/28 04:30 am 46.9 ft 2560 cfs
Mon09/28 04:15 am 46.92 ft 2560 cfs
Mon09/28 04:00 am 46.93 ft 2580 cfs
Mon09/28 03:45 am 46.95 ft 2590 cfs
Mon09/28 03:30 am 46.94 ft 2610 cfs
Mon09/28 03:15 am 46.96 ft 2630 cfs
Mon09/28 03:00 am 46.97 ft 2660 cfs
Mon09/28 02:45 am 46.97 ft 2660 cfs
Mon09/28 02:30 am 46.98 ft 2680 cfs
Mon09/28 02:15 am 47.0 ft 2700 cfs
Mon09/28 02:00 am 47.01 ft 2720 cfs
Mon09/28 01:45 am 47.01 ft 2730 cfs
Mon09/28 01:30 am 47.03 ft 2790 cfs
Mon09/28 01:15 am 47.04 ft 2810 cfs
Mon09/28 01:00 am 47.05 ft 2820 cfs
Mon09/28 12:45 am 47.06 ft 2840 cfs
Mon09/28 12:30 am 47.08 ft 2880 cfs

Latest Forecasts

Currently Forecasted Readings:
Mon09/28 05:00 pm 46.51 ft 1910 cfs
Mon09/28 11:00 pm 46.38 ft 1716 cfs
Tue09/29 05:00 am 46.28 ft 1577 cfs
Tue09/29 11:00 am 46.21 ft 1484 cfs
Tue09/29 05:00 pm 46.17 ft 1421 cfs
Tue09/29 11:00 pm 46.13 ft 1377 cfs
Wed09/30 05:00 am 46.11 ft 1347 cfs
Wed09/30 11:00 am 46.09 ft 1326 cfs
Wed09/30 05:00 pm 46.09 ft 1314 cfs
Wed09/30 11:00 pm 46.08 ft 1307 cfs
Thu10/01 05:00 am 46.08 ft 1304 cfs
Thu10/01 11:00 am 46.03 ft 1248 cfs
Thu10/01 05:00 pm 46.0 ft 1203 cfs
Thu10/01 11:00 pm 45.97 ft 1168 cfs
Fri10/02 05:00 am 45.95 ft 1137 cfs
Fri10/02 11:00 am 45.92 ft 1109 cfs
Fri10/02 05:00 pm 45.9 ft 1083 cfs
Fri10/02 11:00 pm 45.88 ft 1060 cfs
Sat10/03 05:00 am 45.86 ft 1039 cfs
Sat10/03 11:00 am 45.85 ft 1019 cfs
Sat10/03 05:00 pm 45.83 ft 1000 cfs
Sat10/03 11:00 pm 45.82 ft 983 cfs
Sun10/04 05:00 am 45.8 ft 968 cfs
Sun10/04 11:00 am 45.79 ft 954 cfs
Sun10/04 05:00 pm 45.78 ft 940 cfs
Sun10/04 11:00 pm 45.77 ft 928 cfs
Mon10/05 05:00 am 45.76 ft 919 cfs
Mon10/05 11:00 am 45.76 ft 920 cfs
Mon10/05 05:00 pm 45.76 ft 916 cfs
Mon10/05 11:00 pm 45.74 ft 901 cfs
Tue10/06 05:00 am 45.73 ft 886 cfs
Tue10/06 11:00 am 45.72 ft 875 cfs
Tue10/06 05:00 pm 45.71 ft 866 cfs
Tue10/06 11:00 pm 45.71 ft 859 cfs
Wed10/07 05:00 am 45.7 ft 854 cfs
Wed10/07 11:00 am 45.7 ft 850 cfs
Wed10/07 05:00 pm 45.69 ft 844 cfs
Wed10/07 11:00 pm 45.69 ft 838 cfs
Thu10/08 05:00 am 45.68 ft 833 cfs

Snoqualmie River flood gauge data supplied by the
National Weather Service Northwest River Forecast Center.

Sign up for Floodzilla alerts.